TVF3217 GMTT-LFRS
Flight info
| Callsign | TVF3217 |
|---|---|
| Flight time | N/A |
| Altitude | 38000 |
| Route | BARPA DCT ALCOL N871 VTB N867 NENEM DCT YURZI UL14 TEPRA DCT EPIXO |
| Aircraft | B738/M-SDE2E3FGHIRWXY/LB1 |
Departure
| Time | 2026-04-20 09:54 |
|---|---|
| Airport | Tangier Ibn Battuta Airport (GMTT) |
Arrival
| Time | N/A |
|---|---|
| Airport | Nantes Atlantique Airport (LFRS) |
| Time | Latitude | Longitude | Altitude | Speed | Heading |
|---|---|---|---|---|---|
| 2026-04-20 09:41 | 35.72520 | -5.91449 | 59 ft | 0 kts | 354° |
| 2026-04-20 09:44 | 35.72512 | -5.91448 | 59 ft | 4 kts | 353° |
| 2026-04-20 09:45 | 35.72485 | -5.91443 | 52 ft | 4 kts | 347° |
| 2026-04-20 09:45 | 35.72459 | -5.91434 | 55 ft | 4 kts | 335° |
| 2026-04-20 09:45 | 35.72438 | -5.91416 | 51 ft | 4 kts | 299° |
| 2026-04-20 09:45 | 35.72434 | -5.91402 | 53 ft | 1 kts | 267° |
| 2026-04-20 09:47 | 35.72434 | -5.91405 | 54 ft | 1 kts | 267° |
| 2026-04-20 09:47 | 35.72432 | -5.91440 | 54 ft | 7 kts | 266° |
| 2026-04-20 09:47 | 35.72427 | -5.91528 | 55 ft | 14 kts | 265° |
| 2026-04-20 09:48 | 35.72459 | -5.91651 | 50 ft | 17 kts | 315° |
| 2026-04-20 09:48 | 35.72568 | -5.91691 | 59 ft | 17 kts | 356° |
| 2026-04-20 09:48 | 35.72680 | -5.91700 | 59 ft | 16 kts | 355° |
| 2026-04-20 09:48 | 35.72788 | -5.91711 | 59 ft | 13 kts | 355° |
| 2026-04-20 09:49 | 35.72879 | -5.91720 | 56 ft | 13 kts | 356° |
| 2026-04-20 09:49 | 35.72949 | -5.91775 | 59 ft | 13 kts | 289° |
| 2026-04-20 09:49 | 35.72962 | -5.91890 | 55 ft | 14 kts | 276° |
| 2026-04-20 09:49 | 35.72974 | -5.92015 | 53 ft | 15 kts | 276° |
| 2026-04-20 09:50 | 35.72986 | -5.92148 | 58 ft | 16 kts | 276° |
| 2026-04-20 09:50 | 35.73000 | -5.92291 | 58 ft | 17 kts | 276° |
| 2026-04-20 09:50 | 35.73014 | -5.92442 | 57 ft | 18 kts | 276° |
| 2026-04-20 09:50 | 35.73028 | -5.92602 | 59 ft | 19 kts | 276° |
| 2026-04-20 09:51 | 35.73044 | -5.92768 | 55 ft | 20 kts | 276° |
| 2026-04-20 09:51 | 35.73060 | -5.92941 | 51 ft | 20 kts | 277° |
| 2026-04-20 09:51 | 35.73076 | -5.93110 | 53 ft | 20 kts | 276° |
| 2026-04-20 09:51 | 35.73091 | -5.93273 | 59 ft | 19 kts | 276° |
| 2026-04-20 09:52 | 35.73106 | -5.93432 | 56 ft | 18 kts | 276° |
| 2026-04-20 09:52 | 35.73120 | -5.93585 | 55 ft | 18 kts | 277° |
| 2026-04-20 09:52 | 35.73134 | -5.93734 | 55 ft | 17 kts | 278° |
| 2026-04-20 09:52 | 35.73148 | -5.93877 | 56 ft | 16 kts | 276° |
| 2026-04-20 09:53 | 35.73171 | -5.94011 | 57 ft | 16 kts | 301° |
| 2026-04-20 09:53 | 35.73267 | -5.94052 | 56 ft | 15 kts | 16° |
| 2026-04-20 09:53 | 35.73338 | -5.93975 | 61 ft | 13 kts | 85° |
| 2026-04-20 09:53 | 35.73322 | -5.93798 | 61 ft | 46 kts | 96° |
| 2026-04-20 09:54 | 35.73258 | -5.93120 | 54 ft | 111 kts | 96° |
| 2026-04-20 09:54 | 35.73149 | -5.91987 | 129 ft | 154 kts | 97° |
| 2026-04-20 09:54 | 35.73019 | -5.90631 | 654 ft | 168 kts | 97° |
| 2026-04-20 09:54 | 35.72877 | -5.89206 | 1406 ft | 165 kts | 98° |
| 2026-04-20 09:55 | 35.72744 | -5.87804 | 2129 ft | 171 kts | 99° |
| 2026-04-20 09:55 | 35.72598 | -5.86207 | 2421 ft | 202 kts | 98° |
| 2026-04-20 09:55 | 35.72437 | -5.84375 | 2611 ft | 228 kts | 97° |
| 2026-04-20 09:55 | 35.72265 | -5.82338 | 2820 ft | 252 kts | 96° |
| 2026-04-20 09:56 | 35.72535 | -5.80146 | 3198 ft | 272 kts | 64° |
| 2026-04-20 09:56 | 35.73737 | -5.78330 | 3979 ft | 277 kts | 45° |
| 2026-04-20 09:56 | 35.75120 | -5.76669 | 4837 ft | 279 kts | 44° |
| 2026-04-20 09:56 | 35.76496 | -5.75027 | 5683 ft | 281 kts | 43° |
| 2026-04-20 09:57 | 35.77909 | -5.73325 | 6422 ft | 287 kts | 43° |
| 2026-04-20 09:57 | 35.79322 | -5.71601 | 7256 ft | 287 kts | 44° |
| 2026-04-20 09:57 | 35.80753 | -5.69843 | 7935 ft | 294 kts | 43° |
| 2026-04-20 09:57 | 35.82216 | -5.68043 | 8686 ft | 296 kts | 42° |
| 2026-04-20 09:58 | 35.83206 | -5.66875 | 9252 ft | 296 kts | 37° |
| 2026-04-20 09:58 | 35.84989 | -5.65597 | 9910 ft | 300 kts | 21° |
| 2026-04-20 09:58 | 35.86926 | -5.64534 | 10386 ft | 314 kts | 20° |
| 2026-04-20 09:58 | 35.89009 | -5.63427 | 10571 ft | 337 kts | 19° |
| 2026-04-20 09:59 | 35.91233 | -5.62246 | 10732 ft | 359 kts | 21° |
| 2026-04-20 09:59 | 35.93579 | -5.60984 | 11006 ft | 376 kts | 22° |
| 2026-04-20 09:59 | 35.96002 | -5.59668 | 11539 ft | 382 kts | 21° |
| 2026-04-20 09:59 | 35.97619 | -5.58786 | 11985 ft | 384 kts | 21° |
| 2026-04-20 10:00 | 35.98367 | -5.58376 | 12158 ft | 386 kts | 22° |
| 2026-04-20 10:00 | 36.00555 | -5.57173 | 12719 ft | 389 kts | 21° |
| 2026-04-20 10:00 | 36.03042 | -5.55800 | 13405 ft | 392 kts | 21° |
| 2026-04-20 10:00 | 36.05537 | -5.54416 | 14100 ft | 395 kts | 23° |
| 2026-04-20 10:01 | 36.08081 | -5.53006 | 14541 ft | 403 kts | 23° |
| 2026-04-20 10:01 | 36.10649 | -5.51581 | 15168 ft | 407 kts | 22° |
| 2026-04-20 10:01 | 36.13241 | -5.50140 | 15794 ft | 411 kts | 24° |
| 2026-04-20 10:01 | 36.15845 | -5.48689 | 16609 ft | 409 kts | 23° |
| 2026-04-20 10:02 | 36.18447 | -5.47237 | 17286 ft | 413 kts | 24° |
| 2026-04-20 10:02 | 36.21073 | -5.45773 | 17923 ft | 417 kts | 24° |
| 2026-04-20 10:02 | 36.23754 | -5.44278 | 18361 ft | 426 kts | 24° |
| 2026-04-20 10:02 | 36.26482 | -5.42756 | 18801 ft | 432 kts | 24° |
| 2026-04-20 10:03 | 36.29206 | -5.41235 | 19268 ft | 437 kts | 24° |
| 2026-04-20 10:03 | 36.31981 | -5.39685 | 19862 ft | 438 kts | 24° |
| 2026-04-20 10:03 | 36.34771 | -5.38125 | 20369 ft | 442 kts | 24° |
| 2026-04-20 10:03 | 36.37586 | -5.36551 | 20984 ft | 441 kts | 24° |
| 2026-04-20 10:04 | 36.40397 | -5.34976 | 21506 ft | 444 kts | 24° |
| 2026-04-20 10:04 | 36.43211 | -5.33399 | 22126 ft | 444 kts | 24° |
| 2026-04-20 10:04 | 36.46035 | -5.31815 | 22616 ft | 447 kts | 24° |
| 2026-04-20 10:04 | 36.47923 | -5.30756 | 22893 ft | 450 kts | 24° |
| 2026-04-20 10:05 | 36.49525 | -5.29856 | 23112 ft | 452 kts | 24° |
| 2026-04-20 10:05 | 36.52409 | -5.28236 | 23515 ft | 456 kts | 24° |
| 2026-04-20 10:05 | 36.55312 | -5.26604 | 23949 ft | 457 kts | 24° |
| 2026-04-20 10:05 | 36.58217 | -5.24969 | 24327 ft | 460 kts | 24° |
| 2026-04-20 10:06 | 36.61142 | -5.23321 | 24683 ft | 462 kts | 24° |
| 2026-04-20 10:06 | 36.64093 | -5.21657 | 25028 ft | 465 kts | 24° |
| 2026-04-20 10:06 | 36.67058 | -5.19985 | 25293 ft | 471 kts | 24° |
| 2026-04-20 10:06 | 36.70013 | -5.18316 | 25683 ft | 471 kts | 24° |
| 2026-04-20 10:07 | 36.73001 | -5.16627 | 26065 ft | 473 kts | 24° |
| 2026-04-20 10:07 | 36.76012 | -5.14924 | 26315 ft | 477 kts | 24° |
| 2026-04-20 10:07 | 36.79039 | -5.13210 | 26700 ft | 478 kts | 24° |
| 2026-04-20 10:07 | 36.82071 | -5.11492 | 27078 ft | 479 kts | 24° |
| 2026-04-20 10:08 | 36.85121 | -5.09762 | 27307 ft | 483 kts | 24° |
| 2026-04-20 10:08 | 36.88193 | -5.08018 | 27636 ft | 485 kts | 24° |
| 2026-04-20 10:08 | 36.91269 | -5.06270 | 27975 ft | 486 kts | 23° |
| 2026-04-20 10:08 | 36.94346 | -5.04520 | 28425 ft | 485 kts | 23° |
| 2026-04-20 10:09 | 36.97411 | -5.02776 | 28839 ft | 484 kts | 23° |
| 2026-04-20 10:09 | 37.00476 | -5.01030 | 29301 ft | 483 kts | 23° |
| 2026-04-20 10:09 | 37.03532 | -4.99288 | 29727 ft | 482 kts | 23° |
| 2026-04-20 10:09 | 37.05547 | -4.98137 | 30037 ft | 480 kts | 23° |
| 2026-04-20 10:10 | 37.07268 | -4.97155 | 30239 ft | 480 kts | 23° |
| 2026-04-20 10:10 | 37.10307 | -4.95419 | 30568 ft | 480 kts | 23° |
| 2026-04-20 10:10 | 37.13340 | -4.93684 | 30935 ft | 479 kts | 23° |
| 2026-04-20 10:10 | 37.16340 | -4.91967 | 31222 ft | 480 kts | 23° |
| 2026-04-20 10:11 | 37.19387 | -4.90222 | 31449 ft | 482 kts | 23° |
| 2026-04-20 10:11 | 37.22444 | -4.88470 | 31745 ft | 483 kts | 23° |
| 2026-04-20 10:11 | 37.25503 | -4.86714 | 32074 ft | 482 kts | 24° |
| 2026-04-20 10:11 | 37.28554 | -4.84962 | 32396 ft | 482 kts | 24° |
| 2026-04-20 10:12 | 37.31608 | -4.83206 | 32677 ft | 483 kts | 24° |
| 2026-04-20 10:12 | 37.34672 | -4.81443 | 32953 ft | 483 kts | 24° |
| 2026-04-20 10:12 | 37.37737 | -4.79678 | 33248 ft | 484 kts | 24° |
| 2026-04-20 10:12 | 37.40801 | -4.77911 | 33452 ft | 486 kts | 23° |
| 2026-04-20 10:13 | 37.43884 | -4.76133 | 33628 ft | 489 kts | 23° |
| 2026-04-20 10:13 | 37.46941 | -4.74368 | 33920 ft | 489 kts | 23° |
| 2026-04-20 10:13 | 37.50028 | -4.72584 | 34236 ft | 488 kts | 23° |
| 2026-04-20 10:13 | 37.53109 | -4.70801 | 34558 ft | 486 kts | 23° |
| 2026-04-20 10:14 | 37.56177 | -4.69024 | 34868 ft | 484 kts | 23° |
| 2026-04-20 10:14 | 37.59239 | -4.67249 | 35154 ft | 484 kts | 23° |
| 2026-04-20 10:14 | 37.62302 | -4.65472 | 35418 ft | 483 kts | 23° |
| 2026-04-20 10:14 | 37.64322 | -4.64299 | 35618 ft | 482 kts | 23° |
| 2026-04-20 10:15 | 37.66062 | -4.63288 | 35803 ft | 481 kts | 23° |
| 2026-04-20 10:15 | 37.69097 | -4.61523 | 36101 ft | 479 kts | 23° |
| 2026-04-20 10:15 | 37.72129 | -4.59760 | 36363 ft | 479 kts | 23° |
| 2026-04-20 10:15 | 37.75131 | -4.58012 | 36606 ft | 478 kts | 23° |
| 2026-04-20 10:16 | 37.78149 | -4.56251 | 36889 ft | 477 kts | 23° |
| 2026-04-20 10:16 | 37.81158 | -4.54496 | 37197 ft | 475 kts | 23° |
| 2026-04-20 10:16 | 37.84160 | -4.52743 | 37447 ft | 474 kts | 23° |
| 2026-04-20 10:16 | 37.87123 | -4.51026 | 37663 ft | 474 kts | 22° |
| 2026-04-20 10:17 | 37.90159 | -4.49379 | 37882 ft | 473 kts | 21° |
| 2026-04-20 10:17 | 37.93210 | -4.47786 | 38023 ft | 474 kts | 20° |
| 2026-04-20 10:17 | 37.99340 | -4.44590 | 38010 ft | 475 kts | 21° |
| 2026-04-20 10:18 | 38.05417 | -4.41360 | 38018 ft | 471 kts | 21° |
| 2026-04-20 10:18 | 38.11449 | -4.38133 | 38029 ft | 469 kts | 21° |
| 2026-04-20 10:19 | 38.17446 | -4.34909 | 38019 ft | 467 kts | 21° |
| 2026-04-20 10:19 | 38.22417 | -4.32229 | 38010 ft | 466 kts | 21° |
| 2026-04-20 10:20 | 38.27099 | -4.29701 | 38010 ft | 465 kts | 21° |
| 2026-04-20 10:20 | 38.33066 | -4.26475 | 38020 ft | 465 kts | 21° |
| 2026-04-20 10:21 | 38.38993 | -4.23266 | 38019 ft | 466 kts | 21° |
| 2026-04-20 10:21 | 38.44980 | -4.20018 | 38027 ft | 467 kts | 21° |
| 2026-04-20 10:22 | 38.50977 | -4.16759 | 38019 ft | 469 kts | 21° |
| 2026-04-20 10:22 | 38.57002 | -4.13478 | 38025 ft | 471 kts | 21° |
| 2026-04-20 10:23 | 38.63005 | -4.10203 | 38026 ft | 472 kts | 21° |
| 2026-04-20 10:23 | 38.69044 | -4.06903 | 38021 ft | 471 kts | 21° |
| 2026-04-20 10:24 | 38.75072 | -4.03603 | 38009 ft | 471 kts | 21° |
| 2026-04-20 10:24 | 38.80079 | -4.00860 | 38023 ft | 470 kts | 21° |
| 2026-04-20 10:25 | 38.84881 | -3.98226 | 38017 ft | 470 kts | 21° |
| 2026-04-20 10:25 | 38.90891 | -3.94921 | 38022 ft | 469 kts | 21° |
| 2026-04-20 10:26 | 38.96864 | -3.91631 | 38018 ft | 469 kts | 21° |
| 2026-04-20 10:26 | 39.02858 | -3.88327 | 38025 ft | 468 kts | 21° |
| 2026-04-20 10:27 | 39.08849 | -3.85026 | 38032 ft | 468 kts | 21° |
| 2026-04-20 10:27 | 39.14797 | -3.81743 | 38016 ft | 468 kts | 21° |
| 2026-04-20 10:28 | 39.20768 | -3.78439 | 38018 ft | 467 kts | 21° |
| 2026-04-20 10:28 | 39.26739 | -3.75129 | 38017 ft | 467 kts | 21° |
| 2026-04-20 10:29 | 39.32715 | -3.71810 | 38021 ft | 467 kts | 21° |
| 2026-04-20 10:29 | 39.37676 | -3.69050 | 38011 ft | 467 kts | 21° |
| 2026-04-20 10:30 | 39.42393 | -3.66422 | 38010 ft | 467 kts | 21° |
| 2026-04-20 10:30 | 39.48363 | -3.63090 | 38021 ft | 467 kts | 21° |
| 2026-04-20 10:31 | 39.54289 | -3.59776 | 38026 ft | 467 kts | 21° |
| 2026-04-20 10:31 | 39.60261 | -3.56431 | 38016 ft | 467 kts | 21° |
| 2026-04-20 10:32 | 39.66233 | -3.53080 | 38014 ft | 467 kts | 21° |
| 2026-04-20 10:32 | 39.72207 | -3.49721 | 38022 ft | 468 kts | 21° |
| 2026-04-20 10:33 | 39.78188 | -3.46512 | 38010 ft | 466 kts | 15° |
| 2026-04-20 10:33 | 39.84518 | -3.44940 | 38022 ft | 463 kts | 5° |
| 2026-04-20 10:34 | 39.90919 | -3.43769 | 38024 ft | 463 kts | 5° |
| 2026-04-20 10:35 | 39.98079 | -3.42407 | 38043 ft | 464 kts | 6° |
| 2026-04-20 10:35 | 40.04473 | -3.41138 | 38025 ft | 465 kts | 6° |
| 2026-04-20 10:36 | 40.10826 | -3.39860 | 38022 ft | 465 kts | 6° |
| 2026-04-20 10:36 | 40.17230 | -3.38569 | 38029 ft | 465 kts | 6° |
| 2026-04-20 10:37 | 40.23627 | -3.37279 | 38036 ft | 465 kts | 6° |
| 2026-04-20 10:37 | 40.30026 | -3.35987 | 38035 ft | 465 kts | 6° |
| 2026-04-20 10:38 | 40.36413 | -3.34695 | 38043 ft | 464 kts | 6° |
| 2026-04-20 10:38 | 40.42806 | -3.33399 | 38063 ft | 464 kts | 6° |
| 2026-04-20 10:39 | 40.49194 | -3.32101 | 38050 ft | 464 kts | 5° |
| 2026-04-20 10:39 | 40.55544 | -3.30809 | 38042 ft | 464 kts | 5° |
| 2026-04-20 10:40 | 40.59519 | -3.29999 | 38040 ft | 463 kts | 5° |
| 2026-04-20 10:40 | 40.65889 | -3.28699 | 38034 ft | 462 kts | 5° |
| 2026-04-20 10:41 | 40.72247 | -3.27399 | 38035 ft | 462 kts | 5° |
| 2026-04-20 10:41 | 40.78601 | -3.26096 | 38022 ft | 462 kts | 5° |
| 2026-04-20 10:42 | 40.84957 | -3.24792 | 38020 ft | 462 kts | 5° |
| 2026-04-20 10:42 | 40.91265 | -3.23419 | 38034 ft | 463 kts | 6° |
| 2026-04-20 10:43 | 40.97618 | -3.21978 | 38018 ft | 463 kts | 6° |
| 2026-04-20 10:43 | 41.03980 | -3.20550 | 38037 ft | 464 kts | 6° |
| 2026-04-20 10:44 | 41.10359 | -3.19117 | 38037 ft | 465 kts | 6° |
| 2026-04-20 10:44 | 41.16743 | -3.17670 | 38021 ft | 466 kts | 6° |
| 2026-04-20 10:45 | 41.20688 | -3.16775 | 38021 ft | 466 kts | 6° |
| 2026-04-20 10:45 | 41.26008 | -3.15566 | 38021 ft | 466 kts | 6° |
| 2026-04-20 10:46 | 41.32409 | -3.14109 | 38025 ft | 466 kts | 6° |
| 2026-04-20 10:46 | 41.38817 | -3.12649 | 38022 ft | 467 kts | 6° |
| 2026-04-20 10:47 | 41.45227 | -3.11184 | 38018 ft | 467 kts | 6° |
| 2026-04-20 10:47 | 41.51591 | -3.09729 | 38015 ft | 466 kts | 6° |
| 2026-04-20 10:48 | 41.57981 | -3.08283 | 38016 ft | 466 kts | 6° |
| 2026-04-20 10:48 | 41.64366 | -3.06839 | 38010 ft | 465 kts | 6° |
| 2026-04-20 10:49 | 41.70745 | -3.05391 | 38008 ft | 464 kts | 6° |
| 2026-04-20 10:49 | 41.77113 | -3.03938 | 38010 ft | 464 kts | 6° |
| 2026-04-20 10:50 | 41.80929 | -3.03060 | 38010 ft | 463 kts | 6° |
| 2026-04-20 10:50 | 41.87279 | -3.01596 | 38008 ft | 462 kts | 6° |
| 2026-04-20 10:51 | 41.93615 | -3.00134 | 38005 ft | 461 kts | 6° |
| 2026-04-20 10:51 | 41.99890 | -2.98684 | 38018 ft | 461 kts | 6° |
| 2026-04-20 10:52 | 42.06212 | -2.97220 | 38007 ft | 460 kts | 6° |
| 2026-04-20 10:52 | 42.12528 | -2.95754 | 38010 ft | 460 kts | 6° |
| 2026-04-20 10:53 | 42.18838 | -2.94286 | 37999 ft | 460 kts | 6° |
| 2026-04-20 10:53 | 42.25136 | -2.92817 | 37997 ft | 459 kts | 6° |
| 2026-04-20 10:54 | 42.31389 | -2.91359 | 38016 ft | 459 kts | 6° |
| 2026-04-20 10:54 | 42.37693 | -2.89885 | 38014 ft | 460 kts | 6° |
| 2026-04-20 10:55 | 42.41491 | -2.88995 | 37997 ft | 460 kts | 6° |
| 2026-04-20 10:55 | 42.47817 | -2.88060 | 37996 ft | 454 kts | 354° |
| 2026-04-20 10:56 | 42.54135 | -2.88420 | 37994 ft | 453 kts | 353° |
| 2026-04-20 10:56 | 42.60436 | -2.88837 | 38003 ft | 454 kts | 353° |
| 2026-04-20 10:57 | 42.66724 | -2.89197 | 37987 ft | 455 kts | 353° |
| 2026-04-20 10:57 | 42.73052 | -2.89527 | 37992 ft | 455 kts | 354° |
| 2026-04-20 10:58 | 42.79393 | -2.89850 | 37986 ft | 455 kts | 354° |
| 2026-04-20 10:58 | 42.85731 | -2.90179 | 38000 ft | 456 kts | 353° |
| 2026-04-20 10:59 | 42.92081 | -2.90508 | 37981 ft | 455 kts | 354° |
| 2026-04-20 10:59 | 42.98376 | -2.90830 | 37984 ft | 455 kts | 354° |
| 2026-04-20 11:00 | 43.02028 | -2.91018 | 37984 ft | 454 kts | 353° |
| 2026-04-20 11:00 | 43.08349 | -2.91347 | 37975 ft | 454 kts | 353° |
| 2026-04-20 11:01 | 43.14673 | -2.91677 | 37975 ft | 454 kts | 353° |
| 2026-04-20 11:01 | 43.20988 | -2.92007 | 37975 ft | 453 kts | 353° |
| 2026-04-20 11:02 | 43.27245 | -2.92334 | 37975 ft | 452 kts | 353° |
| 2026-04-20 11:02 | 43.33458 | -2.93243 | 37976 ft | 445 kts | 343° |
| 2026-04-20 11:03 | 43.39483 | -2.95206 | 37980 ft | 444 kts | 342° |
| 2026-04-20 11:03 | 43.45509 | -2.97193 | 37969 ft | 444 kts | 342° |
| 2026-04-20 11:04 | 43.51537 | -2.99105 | 37979 ft | 444 kts | 343° |
| 2026-04-20 11:04 | 43.57538 | -3.00984 | 37981 ft | 445 kts | 343° |
| 2026-04-20 11:05 | 43.61040 | -3.02083 | 37993 ft | 445 kts | 343° |
| 2026-04-20 11:05 | 43.67094 | -3.03987 | 37991 ft | 445 kts | 343° |
| 2026-04-20 11:06 | 43.73159 | -3.05814 | 37985 ft | 446 kts | 344° |
| 2026-04-20 11:06 | 43.79246 | -3.07537 | 38002 ft | 446 kts | 344° |
| 2026-04-20 11:07 | 43.85293 | -3.09262 | 37994 ft | 447 kts | 344° |
| 2026-04-20 11:07 | 43.91381 | -3.11019 | 37997 ft | 447 kts | 344° |
| 2026-04-20 11:08 | 43.97470 | -3.12784 | 38003 ft | 447 kts | 344° |
| 2026-04-20 11:08 | 44.03590 | -3.14357 | 37995 ft | 451 kts | 352° |
| 2026-04-20 11:09 | 44.09896 | -3.13739 | 38007 ft | 460 kts | 7° |
| 2026-04-20 11:09 | 44.16150 | -3.11777 | 38003 ft | 461 kts | 9° |
| 2026-04-20 11:10 | 44.19795 | -3.10590 | 38018 ft | 461 kts | 9° |
| 2026-04-20 11:10 | 44.26049 | -3.08593 | 38010 ft | 461 kts | 8° |
| 2026-04-20 11:11 | 44.32275 | -3.06653 | 38013 ft | 461 kts | 8° |
| 2026-04-20 11:11 | 44.38544 | -3.04717 | 38034 ft | 461 kts | 8° |
| 2026-04-20 11:12 | 44.44812 | -3.02780 | 38015 ft | 461 kts | 8° |
| 2026-04-20 11:12 | 44.51079 | -3.00837 | 38019 ft | 461 kts | 8° |
| 2026-04-20 11:13 | 44.57303 | -2.98902 | 38020 ft | 461 kts | 8° |
| 2026-04-20 11:13 | 44.63567 | -2.96950 | 38027 ft | 461 kts | 8° |
| 2026-04-20 11:14 | 44.69835 | -2.94992 | 38029 ft | 461 kts | 8° |
| 2026-04-20 11:14 | 44.76104 | -2.93030 | 38024 ft | 461 kts | 8° |
| 2026-04-20 11:15 | 44.79693 | -2.91904 | 38024 ft | 461 kts | 8° |
| 2026-04-20 11:15 | 44.85913 | -2.89950 | 38033 ft | 460 kts | 8° |
| 2026-04-20 11:16 | 44.92174 | -2.87979 | 38036 ft | 460 kts | 8° |
| 2026-04-20 11:16 | 44.98429 | -2.86005 | 38042 ft | 460 kts | 8° |
| 2026-04-20 11:17 | 45.04680 | -2.84029 | 38037 ft | 460 kts | 8° |
| 2026-04-20 11:17 | 45.10936 | -2.82046 | 38034 ft | 460 kts | 8° |
| 2026-04-20 11:18 | 45.17183 | -2.80062 | 38051 ft | 460 kts | 8° |
| 2026-04-20 11:18 | 45.23435 | -2.78071 | 38042 ft | 460 kts | 8° |
| 2026-04-20 11:19 | 45.29082 | -2.76269 | 38036 ft | 459 kts | 8° |
| 2026-04-20 11:27 | 45.33862 | -2.74741 | 38042 ft | 459 kts | 8° |
| 2026-04-20 11:28 | 45.40090 | -2.72746 | 38044 ft | 459 kts | 8° |
| 2026-04-20 11:28 | 45.46317 | -2.70747 | 37986 ft | 459 kts | 8° |
| 2026-04-20 11:28 | 45.49467 | -2.69737 | 37412 ft | 463 kts | 8° |
| 2026-04-20 11:29 | 45.52601 | -2.68727 | 36827 ft | 460 kts | 8° |
| 2026-04-20 11:29 | 45.55713 | -2.67722 | 36251 ft | 458 kts | 8° |
| 2026-04-20 11:29 | 45.58782 | -2.66731 | 35598 ft | 458 kts | 8° |
| 2026-04-20 11:29 | 45.60881 | -2.66053 | 35131 ft | 458 kts | 8° |
| 2026-04-20 11:30 | 45.62640 | -2.65485 | 34752 ft | 459 kts | 8° |
| 2026-04-20 11:30 | 45.65753 | -2.64479 | 34050 ft | 459 kts | 8° |
| 2026-04-20 11:30 | 45.68878 | -2.63468 | 33242 ft | 461 kts | 8° |
| 2026-04-20 11:30 | 45.72010 | -2.62453 | 32464 ft | 461 kts | 8° |
| 2026-04-20 11:31 | 45.75147 | -2.61435 | 31696 ft | 462 kts | 8° |
| 2026-04-20 11:31 | 45.78282 | -2.60416 | 30897 ft | 462 kts | 8° |
| 2026-04-20 11:31 | 45.81428 | -2.59392 | 30073 ft | 464 kts | 8° |
| 2026-04-20 11:31 | 45.84579 | -2.58366 | 29079 ft | 465 kts | 8° |
| 2026-04-20 11:32 | 45.87731 | -2.57338 | 28138 ft | 464 kts | 8° |
| 2026-04-20 11:32 | 45.90890 | -2.56306 | 27177 ft | 465 kts | 8° |
| 2026-04-20 11:32 | 45.94004 | -2.55287 | 26180 ft | 466 kts | 8° |
| 2026-04-20 11:32 | 45.97161 | -2.54253 | 25421 ft | 462 kts | 8° |
| 2026-04-20 11:33 | 46.00280 | -2.53229 | 24698 ft | 457 kts | 8° |
| 2026-04-20 11:33 | 46.03368 | -2.52214 | 24000 ft | 452 kts | 8° |
| 2026-04-20 11:33 | 46.06428 | -2.51209 | 23198 ft | 448 kts | 8° |
| 2026-04-20 11:33 | 46.09463 | -2.50212 | 22413 ft | 444 kts | 8° |
| 2026-04-20 11:34 | 46.11445 | -2.49561 | 21932 ft | 440 kts | 8° |
| 2026-04-20 11:34 | 46.14413 | -2.48583 | 21234 ft | 435 kts | 8° |
| 2026-04-20 11:34 | 46.17351 | -2.47624 | 20525 ft | 430 kts | 7° |
| 2026-04-20 11:34 | 46.19292 | -2.47125 | 20061 ft | 425 kts | 4° |
| 2026-04-20 11:35 | 46.21755 | -2.46676 | 19474 ft | 420 kts | 1° |
| 2026-04-20 11:35 | 46.23714 | -2.46389 | 19018 ft | 418 kts | 1° |
| 2026-04-20 11:35 | 46.26597 | -2.45998 | 18319 ft | 415 kts | 1° |
| 2026-04-20 11:35 | 46.29433 | -2.45604 | 17553 ft | 412 kts | 1° |
| 2026-04-20 11:36 | 46.32272 | -2.45186 | 16837 ft | 408 kts | 2° |
| 2026-04-20 11:36 | 46.35084 | -2.44749 | 16155 ft | 404 kts | 2° |
| 2026-04-20 11:36 | 46.37868 | -2.44304 | 15474 ft | 401 kts | 2° |
| 2026-04-20 11:36 | 46.40633 | -2.43856 | 14811 ft | 398 kts | 2° |
| 2026-04-20 11:37 | 46.43372 | -2.43411 | 14117 ft | 396 kts | 3° |
| 2026-04-20 11:37 | 46.48836 | -2.42524 | 12643 ft | 391 kts | 3° |
| 2026-04-20 11:37 | 46.51495 | -2.42130 | 11904 ft | 388 kts | 2° |
| 2026-04-20 11:38 | 46.54177 | -2.41854 | 11252 ft | 384 kts | 1° |
| 2026-04-20 11:38 | 46.56788 | -2.41623 | 11030 ft | 368 kts | 1° |
| 2026-04-20 11:38 | 46.59291 | -2.41396 | 10861 ft | 353 kts | 1° |
| 2026-04-20 11:38 | 46.61693 | -2.41167 | 10704 ft | 339 kts | 2° |
| 2026-04-20 11:39 | 46.64003 | -2.40938 | 10567 ft | 326 kts | 2° |
| 2026-04-20 11:39 | 46.66230 | -2.40714 | 10433 ft | 315 kts | 1° |
| 2026-04-20 11:39 | 46.68376 | -2.40497 | 10306 ft | 304 kts | 1° |
| 2026-04-20 11:39 | 46.69755 | -2.40355 | 10224 ft | 297 kts | 2° |
| 2026-04-20 11:40 | 46.70857 | -2.40197 | 10162 ft | 292 kts | 8° |
| 2026-04-20 11:40 | 46.72695 | -2.39040 | 10106 ft | 286 kts | 34° |
| 2026-04-20 11:40 | 46.74136 | -2.37071 | 9736 ft | 290 kts | 49° |
| 2026-04-20 11:40 | 46.75408 | -2.34802 | 9447 ft | 287 kts | 49° |
| 2026-04-20 11:41 | 46.76650 | -2.32529 | 9143 ft | 285 kts | 50° |
| 2026-04-20 11:41 | 46.77882 | -2.30277 | 8851 ft | 283 kts | 49° |
| 2026-04-20 11:41 | 46.79110 | -2.28048 | 8558 ft | 280 kts | 50° |
| 2026-04-20 11:41 | 46.80331 | -2.25844 | 8271 ft | 278 kts | 50° |
| 2026-04-20 11:42 | 46.81545 | -2.23663 | 8004 ft | 276 kts | 50° |
| 2026-04-20 11:42 | 46.82752 | -2.21497 | 7711 ft | 274 kts | 50° |
| 2026-04-20 11:42 | 46.83950 | -2.19347 | 7430 ft | 272 kts | 49° |
| 2026-04-20 11:42 | 46.85128 | -2.17237 | 7148 ft | 271 kts | 50° |
| 2026-04-20 11:43 | 46.86314 | -2.15113 | 6867 ft | 269 kts | 50° |
| 2026-04-20 11:43 | 46.87493 | -2.12999 | 6568 ft | 268 kts | 50° |
| 2026-04-20 11:43 | 46.88670 | -2.10890 | 6286 ft | 267 kts | 50° |
| 2026-04-20 11:43 | 46.89841 | -2.08789 | 5984 ft | 265 kts | 51° |
| 2026-04-20 11:44 | 46.91005 | -2.06700 | 5699 ft | 264 kts | 51° |
| 2026-04-20 11:44 | 46.92159 | -2.04626 | 5404 ft | 261 kts | 52° |
| 2026-04-20 11:44 | 46.93302 | -2.02575 | 5123 ft | 259 kts | 53° |
| 2026-04-20 11:44 | 46.94426 | -2.00557 | 4945 ft | 254 kts | 52° |
| 2026-04-20 11:45 | 46.95530 | -1.98570 | 4770 ft | 248 kts | 53° |
| 2026-04-20 11:45 | 46.96598 | -1.96645 | 4669 ft | 239 kts | 53° |
| 2026-04-20 11:45 | 46.97633 | -1.94780 | 4550 ft | 232 kts | 54° |
| 2026-04-20 11:45 | 46.98634 | -1.92974 | 4419 ft | 225 kts | 56° |
| 2026-04-20 11:46 | 46.99209 | -1.90915 | 4222 ft | 217 kts | 88° |
| 2026-04-20 11:46 | 46.98972 | -1.88769 | 4019 ft | 214 kts | 111° |
| 2026-04-20 11:46 | 46.98195 | -1.86921 | 3923 ft | 210 kts | 123° |
| 2026-04-20 11:46 | 46.97717 | -1.86049 | 3880 ft | 209 kts | 127° |